Time;durP1;ratioP1;P1;durP2;ratioP2;P2;SDS_P1;SDS_P2;PMS_P1;PMS_P2;Temp;Humidity;BMP_temperature;BMP_pressure;BME280_temperature;BME280_humidity;BME280_pressure;Samples;Min_cycle;Max_cycle;Signal;HPM_P1;HPM_P2
2021/03/14 00:00:12;;;;;;;0.30;0.20;;;;;;;5.28;100.00;98984.91;5042038;28;20791;-53
2021/03/14 00:02:38;;;;;;;0.20;0.10;;;;;;;5.22;100.00;98989.50;5039326;28;20497;-53
2021/03/14 00:05:05;;;;;;;0.20;0.10;;;;;;;5.30;100.00;98998.03;5041600;28;20456;-53
2021/03/14 00:07:31;;;;;;;0.30;0.20;;;;;;;5.31;100.00;98997.97;5035824;28;21003;-53
2021/03/14 00:09:58;;;;;;;0.23;0.10;;;;;;;5.35;100.00;99001.41;5042466;28;20452;-53
2021/03/14 00:12:24;;;;;;;0.30;0.20;;;;;;;5.60;100.00;98998.91;5045976;28;20471;-53
2021/03/14 00:14:50;;;;;;;0.30;0.20;;;;;;;5.56;100.00;99005.19;5042985;28;20443;-53
2021/03/14 00:17:17;;;;;;;0.20;0.20;;;;;;;5.47;100.00;99006.31;5039171;28;20474;-53
2021/03/14 00:19:43;;;;;;;0.30;0.20;;;;;;;5.56;100.00;99006.06;5042492;28;20505;-53
2021/03/14 00:22:09;;;;;;;0.20;0.20;;;;;;;5.46;100.00;99003.72;5045811;28;20447;-53
2021/03/14 00:24:36;;;;;;;0.30;0.20;;;;;;;5.46;100.00;99001.94;5042776;28;20486;-53
2021/03/14 00:27:02;;;;;;;0.20;0.10;;;;;;;5.50;100.00;99000.09;5038836;28;20481;-53
2021/03/14 00:29:28;;;;;;;0.20;0.10;;;;;;;5.48;100.00;99002.78;5042099;28;20447;-53
2021/03/14 00:31:55;;;;;;;0.20;0.10;;;;;;;5.59;100.00;98990.13;5036677;28;20455;-53
2021/03/14 00:34:21;;;;;;;0.30;0.20;;;;;;;5.76;100.00;98999.34;5041604;28;20454;-53
2021/03/14 00:36:48;;;;;;;0.20;0.20;;;;;;;5.40;100.00;98999.50;5045262;28;20475;-53
2021/03/14 00:39:14;;;;;;;0.20;0.20;;;;;;;5.81;100.00;99000.06;5041052;28;20502;-53
2021/03/14 00:41:41;;;;;;;0.20;0.10;;;;;;;5.55;100.00;98995.56;5021315;28;20447;-53
2021/03/14 00:44:07;;;;;;;0.30;0.20;;;;;;;5.79;100.00;99007.16;5043850;28;20895;-53
2021/03/14 00:46:33;;;;;;;0.30;0.20;;;;;;;5.71;100.00;99011.78;5038609;28;20489;-53
2021/03/14 00:49:00;;;;;;;0.30;0.20;;;;;;;5.68;100.00;98998.69;5040751;28;21310;-53
2021/03/14 00:51:26;;;;;;;0.30;0.20;;;;;;;5.59;100.00;99013.88;5045478;28;20941;-53
2021/03/14 00:53:52;;;;;;;0.20;0.10;;;;;;;5.53;100.00;99016.69;5043230;28;20455;-53
2021/03/14 00:56:19;;;;;;;0.30;0.20;;;;;;;5.56;100.00;99024.50;5038318;28;20474;-53
2021/03/14 00:58:45;;;;;;;0.30;0.17;;;;;;;5.41;100.00;99030.22;5041413;28;20485;-53
2021/03/14 01:01:12;;;;;;;0.30;0.10;;;;;;;5.51;100.00;99031.69;5045530;28;20448;-53
2021/03/14 01:03:38;;;;;;;0.20;0.10;;;;;;;5.64;100.00;99040.09;5043698;28;20490;-53
2021/03/14 01:06:05;;;;;;;0.20;0.10;;;;;;;5.51;100.00;99044.88;5037442;28;20457;-53
2021/03/14 01:08:31;;;;;;;0.20;0.20;;;;;;;5.51;100.00;99044.88;5042652;28;20447;-53
2021/03/14 01:10:58;;;;;;;0.30;0.10;;;;;;;5.58;100.00;99043.75;5037777;28;20451;-53
2021/03/14 01:13:24;;;;;;;0.20;0.20;;;;;;;5.31;100.00;99047.16;5048254;28;20442;-53
2021/03/14 01:15:51;;;;;;;0.30;0.10;;;;;;;5.38;100.00;99054.00;5042367;28;20948;-53
2021/03/14 01:18:17;;;;;;;0.30;0.20;;;;;;;5.22;100.00;99056.22;5043816;28;20953;-53
2021/03/14 01:20:44;;;;;;;0.20;0.20;;;;;;;5.29;100.00;99057.75;5049327;28;20455;-53
2021/03/14 01:23:10;;;;;;;0.20;0.10;;;;;;;5.40;100.00;99057.47;5047837;28;20490;-53
2021/03/14 01:25:37;;;;;;;0.30;0.20;;;;;;;5.22;100.00;99058.84;5042064;28;20972;-53
2021/03/14 01:28:03;;;;;;;0.20;0.10;;;;;;;5.53;100.00;99068.53;5043766;28;20483;-53
2021/03/14 01:30:29;;;;;;;0.20;0.17;;;;;;;5.31;100.00;99079.66;5041309;28;20452;-53
2021/03/14 01:32:55;;;;;;;0.20;0.20;;;;;;;5.46;100.00;99078.38;5048421;28;20446;-53
2021/03/14 01:35:22;;;;;;;0.20;0.10;;;;;;;5.41;100.00;99079.41;5041889;28;20446;-53
2021/03/14 01:37:48;;;;;;;0.20;0.10;;;;;;;5.65;100.00;99084.88;5038210;28;20476;-53
2021/03/14 01:40:17;;;;;;;0.20;0.10;;;;;;;5.49;100.00;99095.88;5048906;28;20455;-53
2021/03/14 01:42:44;;;;;;;0.20;0.10;;;;;;;5.62;100.00;99092.00;5048377;28;20513;-53
2021/03/14 01:45:11;;;;;;;0.30;0.10;;;;;;;5.54;100.00;99091.34;5041994;28;20454;-53
2021/03/14 01:47:40;;;;;;;0.20;0.10;;;;;;;5.52;100.00;99093.16;5042170;28;20871;-53
2021/03/14 01:50:12;;;;;;;0.30;0.10;;;;;;;5.56;100.00;99100.94;5029155;28;20511;-53
2021/03/14 01:52:38;;;;;;;0.23;0.20;;;;;;;5.79;100.00;99102.94;5041838;28;20451;-53
2021/03/14 01:55:06;;;;;;;0.20;0.10;;;;;;;5.73;100.00;99099.59;5037718;28;20463;-53
2021/03/14 01:57:33;;;;;;;0.30;0.10;;;;;;;5.70;100.00;99104.97;5036070;28;20475;-53
2021/03/14 01:59:59;;;;;;;0.20;0.10;;;;;;;5.82;99.95;99100.22;5047450;28;20554;-53
2021/03/14 02:02:26;;;;;;;0.20;0.10;;;;;;;5.72;100.00;99103.13;5048191;28;20454;-53
2021/03/14 02:04:53;;;;;;;0.20;0.10;;;;;;;5.94;99.98;99106.94;5041576;28;20897;-53
2021/03/14 02:07:19;;;;;;;0.30;0.10;;;;;;;5.61;100.00;99114.84;5041466;28;20472;-53
2021/03/14 02:09:46;;;;;;;0.20;0.10;;;;;;;5.80;100.00;99117.84;5046767;28;20479;-53
2021/03/14 02:12:15;;;;;;;0.20;0.10;;;;;;;5.93;99.48;99113.13;5047136;28;20446;-54
2021/03/14 02:14:42;;;;;;;0.30;0.10;;;;;;;5.69;99.81;99127.81;5043493;28;20439;-53
2021/03/14 02:17:13;;;;;;;0.30;0.10;;;;;;;5.83;100.00;99130.94;5041142;28;20502;-53
2021/03/14 02:19:48;;;;;;;0.30;0.20;;;;;;;5.71;100.00;99135.69;5044918;28;20940;-53
2021/03/14 02:22:15;;;;;;;0.27;0.20;;;;;;;5.62;99.56;99142.09;5047981;28;20472;-53
2021/03/14 02:24:46;;;;;;;0.30;0.10;;;;;;;5.64;100.00;99135.00;5045368;28;20498;-53
2021/03/14 02:27:13;;;;;;;0.20;0.10;;;;;;;5.82;99.79;99150.31;5041096;28;20520;-53
2021/03/14 02:29:41;;;;;;;0.20;0.20;;;;;;;5.64;100.00;99149.03;5042949;28;20448;-53
2021/03/14 02:32:09;;;;;;;0.20;0.10;;;;;;;5.61;100.00;99150.88;5040588;28;20585;-53
2021/03/14 02:34:40;;;;;;;0.20;0.10;;;;;;;5.55;100.00;99144.00;5041368;28;20451;-53
2021/03/14 02:37:08;;;;;;;0.20;0.20;;;;;;;5.56;100.00;99151.00;5033184;28;21065;-53
2021/03/14 02:39:36;;;;;;;0.20;0.10;;;;;;;5.50;100.00;99150.31;5040781;28;20501;-53
2021/03/14 02:42:06;;;;;;;0.20;0.10;;;;;;;5.52;100.00;99166.94;5029554;28;20451;-53
2021/03/14 02:44:35;;;;;;;0.20;0.10;;;;;;;5.49;100.00;99173.19;5040620;28;20491;-54
2021/03/14 02:47:02;;;;;;;0.30;0.20;;;;;;;5.34;100.00;99173.53;5045864;28;20480;-53
2021/03/14 02:49:29;;;;;;;0.20;0.20;;;;;;;5.34;100.00;99171.81;5047618;28;20516;-53
2021/03/14 02:51:56;;;;;;;0.20;0.10;;;;;;;5.35;100.00;99164.75;5042522;28;20451;-53
2021/03/14 02:54:24;;;;;;;0.20;0.10;;;;;;;5.49;100.00;99177.59;5040264;28;20471;-53
2021/03/14 02:56:52;;;;;;;0.20;0.20;;;;;;;5.25;100.00;99179.94;5045505;28;20471;-53
2021/03/14 02:59:21;;;;;;;0.20;0.10;;;;;;;5.33;100.00;99187.63;5046468;28;20447;-53
2021/03/14 03:01:49;;;;;;;0.30;0.10;;;;;;;5.52;100.00;99198.59;5043000;28;20454;-53
2021/03/14 03:04:17;;;;;;;0.30;0.10;;;;;;;5.21;100.00;99195.84;5039018;28;20498;-53
2021/03/14 03:06:45;;;;;;;0.30;0.10;;;;;;;5.30;100.00;99204.38;5044602;28;20985;-53
2021/03/14 03:09:13;;;;;;;0.20;0.10;;;;;;;5.25;100.00;99194.88;5047129;28;20461;-53
2021/03/14 03:11:41;;;;;;;0.20;0.10;;;;;;;4.99;100.00;99206.03;5043670;28;20451;-53
2021/03/14 03:14:13;;;;;;;0.20;0.10;;;;;;;5.08;100.00;99212.84;5040394;28;20843;-53
2021/03/14 03:16:46;;;;;;;0.20;0.10;;;;;;;5.12;100.00;99219.78;5043007;28;20499;-53
2021/03/14 03:19:15;;;;;;;0.20;0.10;;;;;;;5.08;100.00;99221.63;5047326;28;20444;-53
2021/03/14 03:21:42;;;;;;;0.20;0.10;;;;;;;4.88;100.00;99224.69;5045642;28;20450;-53
2021/03/14 03:24:09;;;;;;;0.30;0.10;;;;;;;4.89;100.00;99239.59;5039728;28;20486;-53
2021/03/14 03:26:41;;;;;;;0.20;0.20;;;;;;;4.91;100.00;99222.00;5041140;28;20471;-53
2021/03/14 03:29:08;;;;;;;0.20;0.10;;;;;;;4.93;100.00;99243.00;5046558;28;20452;-53
2021/03/14 03:31:35;;;;;;;0.20;0.10;;;;;;;4.83;100.00;99237.13;5034169;28;20444;-53
2021/03/14 03:34:03;;;;;;;0.20;0.10;;;;;;;5.00;100.00;99244.63;5044872;28;20494;-53
2021/03/14 03:36:30;;;;;;;0.20;0.10;;;;;;;4.88;100.00;99231.75;5044155;28;20471;-53
2021/03/14 03:38:56;;;;;;;0.20;0.10;;;;;;;4.81;100.00;99249.44;5044509;28;20509;-53
2021/03/14 03:41:51;;;;;;;0.20;0.20;;;;;;;4.88;100.00;99244.91;5022001;28;20490;-53
2021/03/14 03:44:21;;;;;;;0.20;0.10;;;;;;;4.94;100.00;99253.53;5045902;28;20495;-53
2021/03/14 03:46:49;;;;;;;0.20;0.10;;;;;;;4.71;100.00;99256.66;5039485;28;20510;-53
2021/03/14 03:49:17;;;;;;;0.20;0.10;;;;;;;4.71;100.00;99261.06;5039632;28;20534;-54
2021/03/14 03:51:44;;;;;;;0.20;0.10;;;;;;;4.76;100.00;99265.31;5045880;28;20456;-53
2021/03/14 03:54:13;;;;;;;0.20;0.10;;;;;;;4.77;100.00;99274.09;5046345;28;20461;-53
2021/03/14 03:56:40;;;;;;;0.20;0.20;;;;;;;4.67;100.00;99276.06;5040473;28;20878;-53
2021/03/14 03:59:07;;;;;;;0.20;0.10;;;;;;;4.75;100.00;99274.13;5039506;28;20455;-54
2021/03/14 04:01:35;;;;;;;0.30;0.13;;;;;;;4.66;100.00;99297.13;5044798;28;20462;-53
2021/03/14 04:04:02;;;;;;;0.20;0.20;;;;;;;4.97;100.00;99298.22;5045859;28;20905;-54
2021/03/14 04:06:30;;;;;;;0.20;0.10;;;;;;;4.63;100.00;99298.06;5041315;28;20474;-53
2021/03/14 04:08:57;;;;;;;0.20;0.17;;;;;;;4.66;100.00;99298.03;5039295;28;20502;-53
2021/03/14 04:11:24;;;;;;;0.20;0.17;;;;;;;4.62;100.00;99298.09;5031832;28;20968;-53
2021/03/14 04:13:52;;;;;;;0.20;0.10;;;;;;;4.52;100.00;99302.69;5044575;28;20501;-53
2021/03/14 04:16:19;;;;;;;0.20;0.10;;;;;;;4.49;100.00;99318.53;5041470;28;20489;-54
2021/03/14 04:18:46;;;;;;;0.20;0.20;;;;;;;4.52;100.00;99322.84;5039070;28;20451;-53
2021/03/14 04:21:15;;;;;;;0.20;0.20;;;;;;;4.58;100.00;99321.00;5043466;28;20463;-53
2021/03/14 04:23:44;;;;;;;0.20;0.10;;;;;;;4.38;100.00;99318.72;5044558;28;20495;-53
2021/03/14 04:26:12;;;;;;;0.20;0.10;;;;;;;4.58;100.00;99325.38;5042352;28;20471;-53
2021/03/14 04:28:40;;;;;;;0.20;0.10;;;;;;;4.43;100.00;99324.78;5038745;28;20450;-53
2021/03/14 04:31:07;;;;;;;0.20;0.20;;;;;;;4.44;100.00;99325.66;5033859;28;20456;-53
2021/03/14 04:33:34;;;;;;;0.20;0.10;;;;;;;4.63;100.00;99331.41;5045534;28;20952;-53
2021/03/14 04:36:02;;;;;;;0.20;0.10;;;;;;;4.51;100.00;99332.53;5041163;28;20953;-53
2021/03/14 04:38:30;;;;;;;0.20;0.10;;;;;;;4.39;100.00;99338.91;5045335;28;20452;-53
2021/03/14 04:40:57;;;;;;;0.20;0.20;;;;;;;4.56;100.00;99350.88;5022527;28;20942;-53
2021/03/14 04:43:25;;;;;;;0.20;0.10;;;;;;;4.56;100.00;99354.38;5036476;28;20487;-54
2021/03/14 04:45:53;;;;;;;0.20;0.10;;;;;;;4.68;100.00;99342.75;5039387;28;20455;-54
2021/03/14 04:48:20;;;;;;;0.20;0.10;;;;;;;4.65;100.00;99355.94;5038449;28;20473;-53
2021/03/14 04:50:48;;;;;;;0.20;0.10;;;;;;;4.68;100.00;99356.75;5038861;28;20459;-54
2021/03/14 04:53:14;;;;;;;0.20;0.10;;;;;;;4.39;100.00;99364.34;5044937;28;20455;-53
2021/03/14 04:55:44;;;;;;;0.30;0.10;;;;;;;4.41;100.00;99370.44;5045143;28;20455;-54
2021/03/14 04:58:19;;;;;;;0.20;0.10;;;;;;;4.35;100.00;99368.78;5039722;28;20467;-53
2021/03/14 05:00:45;;;;;;;0.20;0.10;;;;;;;4.57;100.00;99371.88;5038360;28;20447;-53
2021/03/14 05:03:14;;;;;;;0.20;0.10;;;;;;;4.51;100.00;99374.63;5043156;28;20491;-53
2021/03/14 05:05:44;;;;;;;0.20;0.10;;;;;;;4.67;100.00;99372.59;5045451;28;20457;-53
2021/03/14 05:08:11;;;;;;;0.20;0.20;;;;;;;4.52;100.00;99378.13;5041524;28;20471;-53
2021/03/14 05:10:39;;;;;;;0.20;0.20;;;;;;;4.57;100.00;99374.53;5038664;28;20542;-53
2021/03/14 05:13:06;;;;;;;0.20;0.20;;;;;;;4.50;100.00;99378.16;5041551;28;20820;-53
2021/03/14 05:15:34;;;;;;;0.20;0.20;;;;;;;4.47;100.00;99388.75;5045303;28;20822;-53
2021/03/14 05:18:01;;;;;;;0.20;0.10;;;;;;;4.43;100.00;99387.94;5043723;28;20463;-53
2021/03/14 05:20:28;;;;;;;0.20;0.10;;;;;;;4.39;100.00;99403.81;5038373;28;20504;-53
2021/03/14 05:22:56;;;;;;;0.20;0.20;;;;;;;4.53;100.00;99412.31;5040753;28;20510;-53
2021/03/14 05:25:23;;;;;;;0.20;0.10;;;;;;;4.37;100.00;99414.34;5045238;28;20448;-53
2021/03/14 05:27:51;;;;;;;0.20;0.10;;;;;;;4.34;100.00;99422.28;5042985;28;20846;-53
2021/03/14 05:30:28;;;;;;;0.20;0.10;;;;;;;4.22;100.00;99426.88;5026728;28;20913;-53
2021/03/14 05:32:56;;;;;;;0.20;0.10;;;;;;;4.49;100.00;99442.19;5044463;28;20442;-53
2021/03/14 05:35:25;;;;;;;0.20;0.10;;;;;;;4.36;100.00;99440.66;5038141;28;20867;-53
2021/03/14 05:37:52;;;;;;;0.20;0.20;;;;;;;4.46;100.00;99452.78;5047517;28;20478;-53
2021/03/14 05:40:20;;;;;;;0.20;0.10;;;;;;;4.40;100.00;99445.00;5045039;28;20451;-53
2021/03/14 05:42:46;;;;;;;0.20;0.20;;;;;;;4.57;100.00;99461.38;5027698;28;20459;-54
2021/03/14 05:45:13;;;;;;;0.20;0.10;;;;;;;4.58;100.00;99460.47;5044766;28;20500;-53
2021/03/14 05:47:40;;;;;;;0.20;0.20;;;;;;;4.49;100.00;99460.63;5044520;28;20881;-53
2021/03/14 05:50:09;;;;;;;0.20;0.10;;;;;;;4.40;100.00;99466.94;5039087;28;20481;-53
2021/03/14 05:52:39;;;;;;;0.20;0.10;;;;;;;4.55;100.00;99472.81;5038214;28;20538;-54
2021/03/14 05:55:11;;;;;;;0.30;0.20;;;;;;;4.62;100.00;99471.78;5046708;28;20447;-54
2021/03/14 05:57:41;;;;;;;0.20;0.10;;;;;;;4.69;100.00;99478.69;5048519;28;20960;-53
2021/03/14 06:00:09;;;;;;;0.20;0.20;;;;;;;4.45;100.00;99483.50;5044535;28;20477;-53
2021/03/14 06:02:38;;;;;;;0.20;0.10;;;;;;;4.50;100.00;99495.69;5041316;28;20469;-53
2021/03/14 06:05:05;;;;;;;0.20;0.10;;;;;;;4.42;100.00;99501.09;5045050;28;20495;-53
2021/03/14 06:07:32;;;;;;;0.20;0.20;;;;;;;4.26;100.00;99505.75;5048267;28;20474;-54
2021/03/14 06:09:58;;;;;;;0.20;0.20;;;;;;;4.28;100.00;99510.97;5039343;28;20506;-53
2021/03/14 06:12:24;;;;;;;0.20;0.10;;;;;;;4.34;100.00;99514.38;5035426;28;20451;-54
2021/03/14 06:14:50;;;;;;;0.20;0.10;;;;;;;4.22;100.00;99505.78;5044365;28;20991;-54
2021/03/14 06:17:17;;;;;;;0.20;0.10;;;;;;;4.27;100.00;99507.47;5048092;28;20562;-55
2021/03/14 06:19:43;;;;;;;0.20;0.10;;;;;;;4.38;100.00;99509.91;5045496;28;20482;-54
2021/03/14 06:22:20;;;;;;;0.20;0.20;;;;;;;4.40;100.00;99513.41;5041158;28;20458;-54
2021/03/14 06:24:47;;;;;;;0.20;0.20;;;;;;;4.35;100.00;99518.72;5042844;28;20591;-54
2021/03/14 06:27:51;;;;;;;0.20;0.10;;;;;;;4.43;100.00;99527.38;5047710;28;20828;-54
2021/03/14 06:30:24;;;;;;;0.20;0.10;;;;;;;4.32;100.00;99537.19;5039982;28;20567;-54
2021/03/14 06:33:05;;;;;;;0.20;0.20;;;;;;;4.45;100.00;99538.75;5046574;28;20920;-55
2021/03/14 06:35:41;;;;;;;0.20;0.10;;;;;;;4.57;100.00;99544.72;5047104;28;20486;-54
2021/03/14 06:38:33;;;;;;;0.40;0.40;;;;;;;4.49;100.00;99554.47;5047848;28;20470;-55
2021/03/14 06:41:02;;;;;;;0.20;0.10;;;;;;;4.63;100.00;99560.38;5024031;28;20448;-55
2021/03/14 06:43:41;;;;;;;0.20;0.10;;;;;;;4.57;100.00;99555.22;5046608;28;20491;-54
2021/03/14 06:46:39;;;;;;;0.20;0.10;;;;;;;4.62;100.00;99563.91;5047354;28;20813;-55
2021/03/14 06:49:06;;;;;;;0.20;0.10;;;;;;;4.67;100.00;99564.72;5038201;28;20497;-54
2021/03/14 06:51:38;;;;;;;0.20;0.10;;;;;;;4.71;100.00;99569.91;5040715;28;20839;-54
2021/03/14 06:54:17;;;;;;;0.20;0.10;;;;;;;4.75;100.00;99575.97;5041294;28;20455;-54
2021/03/14 06:57:20;;;;;;;0.20;0.10;;;;;;;4.88;100.00;99574.00;5029350;28;20478;-54
2021/03/14 06:59:59;;;;;;;0.20;0.17;;;;;;;5.12;100.00;99572.72;5039396;28;20446;-55
2021/03/14 07:02:29;;;;;;;0.20;0.10;;;;;;;5.17;100.00;99581.38;5040307;28;20960;-55
2021/03/14 07:05:01;;;;;;;0.20;0.10;;;;;;;5.30;100.00;99581.13;5044668;28;20494;-54
2021/03/14 07:07:41;;;;;;;0.20;0.17;;;;;;;5.28;100.00;99588.22;5046987;28;20471;-55
2021/03/14 07:10:08;;;;;;;0.20;0.10;;;;;;;5.60;100.00;99600.75;5035970;28;20453;-55
2021/03/14 07:12:40;;;;;;;0.20;0.10;;;;;;;5.67;99.73;99605.94;5044465;28;20497;-55
2021/03/14 07:15:14;;;;;;;0.20;0.20;;;;;;;5.80;98.56;99610.06;5045274;28;20443;-55
2021/03/14 07:17:42;;;;;;;0.20;0.20;;;;;;;5.78;98.30;99607.47;5040073;28;20921;-53
2021/03/14 07:20:25;;;;;;;0.20;0.13;;;;;;;5.76;98.15;99621.56;5053958;28;20447;-56
2021/03/14 07:23:09;;;;;;;0.20;0.20;;;;;;;5.92;98.82;99620.41;5045358;28;20925;-58
2021/03/14 07:25:45;;;;;;;0.20;0.20;;;;;;;5.89;99.16;99623.94;5045771;28;20501;-57
2021/03/14 07:28:12;;;;;;;0.20;0.20;;;;;;;5.94;100.00;99630.00;5045764;28;20463;-58
2021/03/14 07:30:39;;;;;;;0.30;0.20;;;;;;;6.13;100.00;99634.88;5034351;28;20476;-59
2021/03/14 07:33:06;;;;;;;0.30;0.10;;;;;;;6.05;100.00;99628.94;5046874;28;20450;-58
2021/03/14 07:35:32;;;;;;;0.20;0.10;;;;;;;6.25;99.23;99634.63;5040712;28;20455;-58
2021/03/14 07:37:59;;;;;;;0.30;0.20;;;;;;;6.42;98.95;99639.53;5048091;28;20463;-57
2021/03/14 07:40:29;;;;;;;0.20;0.10;;;;;;;6.11;100.00;99648.13;5027150;28;20534;-58
2021/03/14 07:42:57;;;;;;;0.20;0.10;;;;;;;6.35;98.94;99648.50;5041522;28;20451;-58
2021/03/14 07:45:24;;;;;;;0.23;0.20;;;;;;;6.24;98.69;99654.00;5041431;28;20486;-58
2021/03/14 07:47:51;;;;;;;0.30;0.20;;;;;;;6.17;99.17;99650.66;5039391;28;20923;-59
2021/03/14 07:50:23;;;;;;;0.20;0.20;;;;;;;6.12;100.00;99656.91;5044739;28;20460;-58
2021/03/14 07:52:52;;;;;;;0.30;0.10;;;;;;;6.35;96.85;99664.34;5046567;28;20443;-60
2021/03/14 07:55:20;;;;;;;0.30;0.20;;;;;;;6.41;95.75;99669.47;5042510;28;20446;-58
2021/03/14 07:57:49;;;;;;;0.27;0.10;;;;;;;6.35;95.90;99678.41;5039305;28;20996;-58
2021/03/14 08:00:30;;;;;;;0.30;0.10;;;;;;;6.37;95.47;99684.53;5042883;28;20851;-58
2021/03/14 08:03:02;;;;;;;0.20;0.20;;;;;;;6.50;94.85;99686.00;5046234;28;20447;-58
2021/03/14 08:05:45;;;;;;;0.30;0.10;;;;;;;6.41;95.95;99695.88;5044375;28;20455;-57
2021/03/14 08:08:17;;;;;;;0.20;0.10;;;;;;;6.45;95.32;99705.47;5044421;28;20522;-57
2021/03/14 08:10:45;;;;;;;0.30;0.20;;;;;;;6.42;96.86;99708.16;5032474;28;20453;-58
2021/03/14 08:13:16;;;;;;;0.30;0.20;;;;;;;6.54;96.05;99706.13;5042060;28;20458;-57
2021/03/14 08:15:42;;;;;;;0.30;0.20;;;;;;;6.64;96.41;99714.72;5038908;28;20874;-57
2021/03/14 08:18:44;;;;;;;0.30;0.10;;;;;;;6.73;96.74;99706.63;5041881;28;20478;-57
2021/03/14 08:21:19;;;;;;;0.30;0.20;;;;;;;6.81;94.55;99717.00;5024995;28;20519;-57
2021/03/14 08:23:59;;;;;;;0.30;0.20;;;;;;;6.89;94.43;99712.41;5022709;28;20498;-57
2021/03/14 08:26:32;;;;;;;0.30;0.10;;;;;;;6.96;94.56;99721.06;5044743;28;20499;-57
2021/03/14 08:29:02;;;;;;;0.30;0.10;;;;;;;6.92;93.15;99716.75;5038215;28;20828;-57
2021/03/14 08:31:44;;;;;;;0.20;0.10;;;;;;;7.07;93.09;99713.75;5033247;28;20448;-57
2021/03/14 08:34:26;;;;;;;0.20;0.10;;;;;;;7.06;93.04;99720.81;5042914;28;20443;-57
2021/03/14 08:36:54;;;;;;;0.23;0.10;;;;;;;7.22;92.25;99712.50;5045892;28;20478;-57
2021/03/14 08:39:34;;;;;;;0.20;0.10;;;;;;;7.26;91.94;99712.38;5040897;28;20525;-55
2021/03/14 08:42:04;;;;;;;0.20;0.20;;;;;;;7.39;92.31;99718.25;5040142;28;20542;-55
2021/03/14 08:44:40;;;;;;;0.20;0.10;;;;;;;7.53;91.22;99715.25;5039384;28;20506;-55
2021/03/14 08:47:16;;;;;;;0.30;0.20;;;;;;;7.50;89.95;99716.22;5043661;28;20483;-55
2021/03/14 08:49:48;;;;;;;0.30;0.20;;;;;;;7.52;89.72;99716.16;5045722;28;20805;-55
2021/03/14 08:52:16;;;;;;;0.30;0.20;;;;;;;7.41;89.77;99724.41;5043659;28;20450;-55
2021/03/14 08:54:49;;;;;;;0.30;0.20;;;;;;;7.72;89.19;99729.75;5038747;28;20447;-56
2021/03/14 08:57:17;;;;;;;0.30;0.20;;;;;;;7.48;88.98;99725.97;5039491;28;20467;-55
2021/03/14 08:59:55;;;;;;;0.27;0.10;;;;;;;7.23;89.65;99730.09;5045743;28;20460;-55
2021/03/14 09:02:26;;;;;;;0.30;0.10;;;;;;;7.25;90.18;99734.44;5045536;28;20453;-55
2021/03/14 09:04:54;;;;;;;0.20;0.13;;;;;;;7.12;90.24;99741.78;5040782;28;20494;-54
2021/03/14 09:07:20;;;;;;;0.30;0.10;;;;;;;7.47;90.65;99740.09;5038304;28;20463;-56
2021/03/14 09:09:47;;;;;;;0.30;0.20;;;;;;;7.53;90.87;99739.06;5042899;28;20881;-55
2021/03/14 09:12:19;;;;;;;0.20;0.20;;;;;;;7.54;91.17;99732.84;5045589;28;20489;-56
2021/03/14 09:14:48;;;;;;;0.23;0.10;;;;;;;7.64;90.21;99748.47;5041627;28;20471;-56
2021/03/14 09:17:18;;;;;;;0.30;0.20;;;;;;;7.16;89.31;99747.91;5038643;28;20477;-55
2021/03/14 09:19:53;;;;;;;0.30;0.20;;;;;;;7.42;91.96;99742.84;5041621;28;20498;-55
2021/03/14 09:22:32;;;;;;;0.30;0.17;;;;;;;7.62;91.63;99738.84;5045248;28;20462;-55
2021/03/14 09:25:04;;;;;;;0.30;0.20;;;;;;;7.94;88.98;99732.69;5045037;28;20498;-55
2021/03/14 09:27:34;;;;;;;0.30;0.10;;;;;;;7.98;89.13;99740.53;5044363;28;20498;-55
2021/03/14 09:30:22;;;;;;;0.30;0.20;;;;;;;8.13;88.17;99736.59;5040178;28;20451;-55
2021/03/14 09:32:52;;;;;;;0.30;0.20;;;;;;;8.20;87.24;99742.56;5047342;28;20458;-55
2021/03/14 09:35:25;;;;;;;0.30;0.20;;;;;;;8.37;87.25;99739.50;5042415;28;20453;-55
2021/03/14 09:37:53;;;;;;;0.30;0.20;;;;;;;8.61;87.25;99741.41;5051287;28;20512;-55
2021/03/14 09:40:19;;;;;;;0.30;0.20;;;;;;;8.52;84.83;99747.88;5047812;28;20451;-55
2021/03/14 09:42:48;;;;;;;0.30;0.10;;;;;;;8.49;85.23;99755.03;5048921;28;20447;-55
2021/03/14 09:45:19;;;;;;;0.30;0.20;;;;;;;8.65;86.25;99756.34;5042312;28;20495;-55
2021/03/14 09:47:59;;;;;;;0.30;0.20;;;;;;;8.42;84.07;99753.47;5041689;28;21000;-55
2021/03/14 09:50:27;;;;;;;0.30;0.20;;;;;;;8.25;84.37;99760.09;5046267;28;20452;-55
2021/03/14 09:52:53;;;;;;;0.30;0.17;;;;;;;8.53;83.69;99759.34;5048725;28;20455;-54
2021/03/14 09:55:31;;;;;;;0.30;0.10;;;;;;;8.16;84.01;99754.16;5045305;28;20453;-55
2021/03/14 09:58:00;;;;;;;0.30;0.20;;;;;;;8.44;84.42;99754.28;5041662;28;20475;-55
2021/03/14 10:00:32;;;;;;;0.30;0.20;;;;;;;8.46;84.63;99757.75;5043428;28;20858;-55
2021/03/14 10:03:03;;;;;;;0.30;0.20;;;;;;;8.39;84.16;99758.88;5048589;28;20470;-55
2021/03/14 10:05:40;;;;;;;0.30;0.20;;;;;;;8.33;83.60;99759.84;5048264;28;20497;-55
2021/03/14 10:08:08;;;;;;;0.30;0.13;;;;;;;7.97;84.49;99759.97;5046981;28;20558;-55
2021/03/14 10:10:36;;;;;;;0.30;0.20;;;;;;;7.96;86.86;99758.22;5035418;28;20452;-55
2021/03/14 10:13:17;;;;;;;0.30;0.20;;;;;;;8.00;84.67;99759.88;5045439;28;20461;-55
2021/03/14 10:15:47;;;;;;;0.30;0.20;;;;;;;7.69;86.12;99767.75;5041323;28;20504;-55
2021/03/14 10:18:18;;;;;;;0.30;0.10;;;;;;;7.87;85.77;99774.34;5044125;28;20467;-55
2021/03/14 10:20:44;;;;;;;0.30;0.20;;;;;;;7.65;87.87;99778.44;5048194;28;20519;-55
2021/03/14 10:23:11;;;;;;;0.30;0.20;;;;;;;7.63;88.35;99781.09;5046307;28;20505;-55
2021/03/14 10:25:40;;;;;;;0.30;0.20;;;;;;;7.63;88.49;99772.31;5041340;28;20490;-55
2021/03/14 10:28:19;;;;;;;0.30;0.20;;;;;;;7.66;86.97;99780.16;5043157;28;20545;-55
2021/03/14 10:30:47;;;;;;;0.30;0.10;;;;;;;7.57;86.04;99786.56;5030338;28;20553;-56
2021/03/14 10:33:26;;;;;;;0.30;0.20;;;;;;;7.52;86.47;99793.72;5047848;28;20450;-56
2021/03/14 10:36:03;;;;;;;0.20;0.10;;;;;;;7.49;86.00;99787.66;5044089;28;20442;-56
2021/03/14 10:38:38;;;;;;;0.30;0.10;;;;;;;7.45;86.45;99791.28;5047953;28;20804;-56
2021/03/14 10:41:16;;;;;;;0.30;0.20;;;;;;;7.43;87.16;99792.19;5023795;28;20444;-56
2021/03/14 10:43:47;;;;;;;0.30;0.20;;;;;;;7.40;86.62;99799.31;5030804;28;20513;-56
2021/03/14 10:46:32;;;;;;;0.30;0.20;;;;;;;7.24;87.54;99792.63;5040803;28;20533;-56
2021/03/14 10:49:07;;;;;;;0.30;0.20;;;;;;;7.57;86.12;99801.56;5042990;28;20456;-56
2021/03/14 10:51:37;;;;;;;0.30;0.10;;;;;;;7.56;86.94;99802.47;5047853;28;20451;-56
2021/03/14 10:54:14;;;;;;;0.30;0.20;;;;;;;7.52;87.76;99795.50;5047364;28;20443;-56
2021/03/14 10:56:46;;;;;;;0.27;0.20;;;;;;;7.34;87.80;99797.69;5046138;28;20498;-56
2021/03/14 10:59:32;;;;;;;0.30;0.10;;;;;;;7.36;86.95;99803.81;5047383;28;20447;-56
2021/03/14 11:05:07;;;;;;;0.30;0.20;;;;;;;7.41;88.91;99809.88;5032013;28;20495;-56
2021/03/14 11:07:35;;;;;;;0.30;0.20;;;;;;;7.43;90.06;99809.84;5040639;28;20505;-57
2021/03/14 11:10:22;;;;;;;0.30;0.20;;;;;;;7.43;91.73;99810.69;5043222;28;20862;-57
2021/03/14 11:12:48;;;;;;;0.30;0.20;;;;;;;7.49;91.75;99808.81;5028687;28;20451;-57
2021/03/14 11:15:22;;;;;;;0.30;0.20;;;;;;;7.44;91.29;99822.16;5040376;28;20926;-57
2021/03/14 11:17:48;;;;;;;0.27;0.10;;;;;;;7.56;90.43;99813.91;5030983;28;20476;-57
2021/03/14 11:20:17;;;;;;;0.30;0.20;;;;;;;7.56;89.90;99816.56;5042898;28;20955;-57
2021/03/14 11:22:43;;;;;;;0.30;0.20;;;;;;;7.41;90.17;99820.44;5042736;28;20451;-57
2021/03/14 11:25:12;;;;;;;0.30;0.10;;;;;;;7.38;91.35;99823.13;5040139;28;20494;-57
2021/03/14 11:27:39;;;;;;;0.30;0.20;;;;;;;7.22;92.11;99824.41;5044153;28;20472;-57
2021/03/14 11:30:06;;;;;;;0.30;0.20;;;;;;;7.43;91.99;99825.69;5036078;28;20457;-57
2021/03/14 11:32:32;;;;;;;0.30;0.20;;;;;;;7.54;92.44;99815.75;5033673;28;20455;-57
2021/03/14 11:34:58;;;;;;;0.30;0.20;;;;;;;7.75;91.56;99822.28;5038842;28;20444;-57
2021/03/14 11:37:25;;;;;;;0.27;0.20;;;;;;;7.60;91.11;99812.06;5049051;28;20536;-57
2021/03/14 11:39:52;;;;;;;0.30;0.20;;;;;;;7.83;90.98;99819.44;5035384;28;20846;-57
2021/03/14 11:42:19;;;;;;;0.30;0.10;;;;;;;7.94;89.57;99817.38;5022029;28;20460;-57
2021/03/14 11:44:45;;;;;;;0.30;0.20;;;;;;;8.05;89.30;99812.69;5034714;28;20491;-56
2021/03/14 11:47:11;;;;;;;0.30;0.20;;;;;;;8.16;89.54;99809.75;5042967;28;20486;-56
2021/03/14 11:49:38;;;;;;;0.30;0.20;;;;;;;8.14;89.19;99808.94;5046587;28;20470;-57
2021/03/14 11:52:04;;;;;;;0.30;0.20;;;;;;;8.30;88.15;99803.19;5041243;28;20966;-57